createdAt,value
2022-10-17T00:02:11.035Z,2.1
2022-10-17T00:05:11.046Z,2.1
2022-10-17T00:08:11.027Z,2.15
2022-10-17T00:11:11.073Z,1.8
2022-10-17T00:14:11.022Z,2.4
2022-10-17T00:17:11.050Z,2.1
2022-10-17T00:20:11.060Z,2.55
2022-10-17T00:23:11.032Z,2.15
2022-10-17T00:26:11.036Z,2.85
2022-10-17T00:29:11.132Z,2.2
2022-10-17T00:32:11.102Z,2.05
2022-10-17T00:35:11.044Z,2.2
2022-10-17T00:38:11.063Z,2.1
2022-10-17T00:41:11.085Z,1.75
2022-10-17T00:44:11.051Z,1.55
2022-10-17T00:47:11.057Z,1.5
2022-10-17T00:50:10.993Z,1.7
2022-10-17T00:53:11.099Z,1.6
2022-10-17T00:56:11.080Z,2.35
2022-10-17T00:59:11.134Z,1.45
2022-10-17T01:02:11.072Z,1.75
2022-10-17T01:05:11.077Z,1.8
2022-10-17T01:08:11.072Z,2.25
2022-10-17T01:11:11.110Z,2.2
2022-10-17T01:14:11.107Z,1.8
2022-10-17T01:17:11.076Z,2.05
2022-10-17T01:20:11.137Z,2.2
2022-10-17T01:23:11.077Z,1.4
2022-10-17T01:26:11.073Z,1.9
2022-10-17T01:29:11.171Z,1.5
2022-10-17T01:32:11.075Z,1.95
2022-10-17T01:35:11.096Z,1.5
2022-10-17T01:38:11.152Z,1.45
2022-10-17T01:41:11.081Z,1.1
2022-10-17T01:44:11.129Z,1.4
2022-10-17T01:47:11.087Z,1.65
2022-10-17T01:50:11.110Z,1.1
2022-10-17T01:53:11.109Z,1.65
2022-10-17T01:56:11.136Z,1.9
2022-10-17T01:59:11.127Z,1.5
2022-10-17T02:02:11.134Z,1.5
2022-10-17T02:05:11.141Z,2.05
2022-10-17T02:08:11.100Z,1.4
2022-10-17T02:11:11.100Z,1.4
2022-10-17T02:17:11.111Z,1.55
2022-10-17T02:20:11.151Z,1
2022-10-17T02:23:11.231Z,0.8
2022-10-17T02:26:11.161Z,1.15
2022-10-17T02:29:11.129Z,1.05
2022-10-17T02:32:11.273Z,0.7
2022-10-17T02:35:11.187Z,1.2
2022-10-17T02:38:11.174Z,0.9
2022-10-17T02:41:11.155Z,0.6
2022-10-17T02:44:11.261Z,0.5
2022-10-17T02:47:11.200Z,0.5
2022-10-17T02:50:11.286Z,0.4
2022-10-17T02:53:11.212Z,0.25
2022-10-17T02:56:11.183Z,0.15
2022-10-17T02:59:11.165Z,0.35
2022-10-17T03:02:11.141Z,0.2
2022-10-17T03:05:11.218Z,0.35
2022-10-17T03:08:11.170Z,0.5
2022-10-17T03:11:11.182Z,0.2
2022-10-17T03:14:11.208Z,0.45
2022-10-17T03:17:11.201Z,0.45
2022-10-17T03:20:11.236Z,0.55
2022-10-17T03:23:11.196Z,0.4
2022-10-17T03:26:11.271Z,0.25
2022-10-17T03:29:11.308Z,0.4
2022-10-17T03:32:11.183Z,0.3
2022-10-17T03:35:15.891Z,0.2
2022-10-17T03:38:11.247Z,0.45
2022-10-17T03:41:11.186Z,0.3
2022-10-17T03:44:11.196Z,0.2
2022-10-17T03:47:15.041Z,0.2
2022-10-17T03:50:11.162Z,0
2022-10-17T03:53:11.226Z,0.3
2022-10-17T03:56:11.926Z,0
2022-10-17T03:59:11.225Z,0.35
2022-10-17T04:02:11.271Z,0.4
2022-10-17T04:05:11.277Z,0.5
2022-10-17T04:08:11.288Z,0.4
2022-10-17T04:11:11.383Z,0.4
2022-10-17T04:14:11.265Z,0.45
2022-10-17T04:17:11.240Z,0.4
2022-10-17T04:20:11.281Z,0.3
2022-10-17T04:23:11.238Z,0.45
2022-10-17T04:26:11.268Z,0.15
2022-10-17T04:29:11.284Z,0.2
2022-10-17T04:32:11.236Z,0
2022-10-17T04:35:11.276Z,0.1
2022-10-17T04:38:11.266Z,0.15
2022-10-17T04:41:11.262Z,0.1
2022-10-17T04:44:11.674Z,0.3
2022-10-17T04:47:11.286Z,0.25
2022-10-17T04:50:11.321Z,0.05
2022-10-17T04:53:11.247Z,0
2022-10-17T04:56:11.271Z,0
2022-10-17T04:59:11.292Z,0
2022-10-17T05:02:11.328Z,0
2022-10-17T05:05:11.329Z,0
2022-10-17T05:08:11.268Z,0
2022-10-17T05:11:11.407Z,0
2022-10-17T05:14:11.290Z,0.25
2022-10-17T05:17:11.287Z,0.25
2022-10-17T05:20:11.288Z,0.2
2022-10-17T05:23:11.318Z,0.2
2022-10-17T05:26:11.346Z,0.2
2022-10-17T05:29:11.426Z,0.3
2022-10-17T05:32:11.315Z,0.2
2022-10-17T05:35:11.302Z,0
2022-10-17T05:38:11.303Z,0
2022-10-17T05:41:11.370Z,0.2
2022-10-17T05:44:11.346Z,0.15
2022-10-17T05:47:11.352Z,0
2022-10-17T05:50:11.361Z,0
2022-10-17T05:53:11.357Z,0.15
2022-10-17T05:56:11.349Z,0.3
2022-10-17T05:59:11.423Z,0.45
2022-10-17T06:02:11.406Z,0.4
2022-10-17T06:05:11.349Z,0.3
2022-10-17T06:08:11.323Z,0.3
2022-10-17T06:11:11.747Z,0
2022-10-17T06:14:11.354Z,0.25
2022-10-17T06:17:16.552Z,0.1
2022-10-17T06:20:11.386Z,0
2022-10-17T06:23:11.396Z,0
2022-10-17T06:26:11.332Z,0
2022-10-17T06:29:11.594Z,0
2022-10-17T06:32:15.347Z,0
2022-10-17T06:35:11.393Z,0
2022-10-17T06:38:11.358Z,0
2022-10-17T06:41:11.416Z,0
2022-10-17T06:44:11.484Z,0
2022-10-17T06:47:12.124Z,0
2022-10-17T06:50:11.428Z,0
2022-10-17T06:53:11.384Z,0
2022-10-17T06:56:11.412Z,0
2022-10-17T06:59:11.407Z,0
2022-10-17T07:02:11.386Z,0
2022-10-17T07:05:11.397Z,0.4
2022-10-17T07:08:11.388Z,1.2
2022-10-17T07:11:11.418Z,1.35
2022-10-17T07:14:11.411Z,1.35
2022-10-17T07:17:11.431Z,1.25
2022-10-17T07:20:11.426Z,1.3
2022-10-17T07:23:11.452Z,1.6
2022-10-17T07:26:11.398Z,1.1
2022-10-17T07:29:11.434Z,1.2
2022-10-17T07:32:14.176Z,1.15
2022-10-17T07:35:11.447Z,1.2
2022-10-17T07:38:11.402Z,0.95
2022-10-17T07:41:11.471Z,0.6
2022-10-17T07:44:11.427Z,0.45
2022-10-17T07:47:11.413Z,0.75
2022-10-17T07:50:11.501Z,1.25
2022-10-17T07:53:11.476Z,1.75
2022-10-17T07:56:11.482Z,2.05
2022-10-17T07:59:11.468Z,1.2
2022-10-17T08:02:11.481Z,0.5
2022-10-17T08:05:11.450Z,0.15
2022-10-17T08:08:11.484Z,0.25
2022-10-17T08:11:11.478Z,0.15
2022-10-17T08:14:11.478Z,0.4
2022-10-17T08:17:11.491Z,0.25
2022-10-17T08:20:11.499Z,0.2
2022-10-17T08:23:11.487Z,0.1
2022-10-17T08:26:11.852Z,0.55
2022-10-17T08:29:11.621Z,0.65
2022-10-17T08:32:11.471Z,0.35
2022-10-17T08:35:11.469Z,0.4
2022-10-17T08:38:15.242Z,1.1
2022-10-17T08:41:11.488Z,1.3
2022-10-17T08:44:11.498Z,1.15
2022-10-17T08:47:11.512Z,1.25
2022-10-17T08:50:11.542Z,0.95
2022-10-17T08:53:11.531Z,1.05
2022-10-17T08:56:19.681Z,0.65
2022-10-17T08:59:11.540Z,0.5
2022-10-17T09:02:11.472Z,0.8
2022-10-17T09:05:11.512Z,1.3
2022-10-17T09:08:11.678Z,0.95
2022-10-17T09:11:11.478Z,1
2022-10-17T09:14:11.537Z,0.9
2022-10-17T09:17:11.483Z,0.95
2022-10-17T09:20:14.116Z,1.2
2022-10-17T09:23:11.554Z,0.8
2022-10-17T09:26:11.571Z,0.6
2022-10-17T09:29:11.537Z,1.15
2022-10-17T09:32:11.527Z,0.3
2022-10-17T09:35:11.528Z,0.25
2022-10-17T09:38:11.554Z,0.55
2022-10-17T09:41:39.636Z,0.3
2022-10-17T09:44:11.572Z,0.25
2022-10-17T09:47:11.576Z,0.25
2022-10-17T09:50:11.554Z,0.3
2022-10-17T09:53:11.574Z,0.95
2022-10-17T09:56:11.588Z,0.5
2022-10-17T09:59:14.736Z,0.3
2022-10-17T10:02:11.562Z,0.6
2022-10-17T10:05:11.593Z,0.25
2022-10-17T10:08:11.602Z,0.35
2022-10-17T10:11:14.807Z,0.3
2022-10-17T10:14:11.649Z,0.3
2022-10-17T10:17:11.596Z,0.6
2022-10-17T10:20:11.551Z,0.6
2022-10-17T10:23:11.556Z,0.25
2022-10-17T10:26:13.450Z,0.6
2022-10-17T10:29:11.720Z,0.5
2022-10-17T10:32:11.589Z,0.55
2022-10-17T10:35:11.649Z,0.6
2022-10-17T10:38:11.606Z,0.9
2022-10-17T10:41:11.634Z,0.4
2022-10-17T10:44:11.618Z,0.45
2022-10-17T10:47:11.668Z,0.65
2022-10-17T10:50:11.599Z,0.75
2022-10-17T10:53:11.647Z,0.55
2022-10-17T10:56:11.646Z,0.55
2022-10-17T10:59:11.641Z,1.15
2022-10-17T11:02:11.642Z,0.95
2022-10-17T11:05:11.592Z,1
2022-10-17T11:08:11.599Z,0.7
2022-10-17T11:11:11.619Z,0.95
2022-10-17T11:14:14.615Z,0.55
2022-10-17T11:17:11.632Z,0.55
2022-10-17T11:20:11.607Z,0.6
2022-10-17T11:23:11.623Z,0.45
2022-10-17T11:26:11.614Z,0.55
2022-10-17T11:29:11.720Z,0.7
2022-10-17T11:32:11.947Z,0.9
2022-10-17T11:35:11.662Z,0.75
2022-10-17T11:38:11.684Z,0.7
2022-10-17T11:41:11.622Z,0.6
2022-10-17T11:44:11.668Z,0.45
2022-10-17T11:47:11.680Z,0.45
2022-10-17T11:53:11.682Z,1.3
2022-10-17T11:56:11.662Z,2.4
2022-10-17T11:59:11.690Z,2.1
2022-10-17T12:02:11.688Z,1.75
2022-10-17T12:05:11.735Z,1.05
2022-10-17T12:08:11.751Z,1.7
2022-10-17T12:11:12.066Z,1.4
2022-10-17T12:14:11.708Z,1
2022-10-17T12:17:11.728Z,0.95
2022-10-17T12:20:11.719Z,0.95
2022-10-17T12:23:11.689Z,1.4
2022-10-17T12:26:11.732Z,1.05
2022-10-17T12:29:11.672Z,0.95
2022-10-17T12:32:11.718Z,0.8
2022-10-17T12:35:11.749Z,0.6
2022-10-17T12:38:11.714Z,1.1
2022-10-17T12:41:12.470Z,2.05
2022-10-17T12:44:11.749Z,1.5
2022-10-17T12:47:12.087Z,1
2022-10-17T12:50:11.688Z,1.5
2022-10-17T12:53:18.377Z,1.85
2022-10-17T12:56:11.730Z,1.05
2022-10-17T12:59:11.766Z,1.55
2022-10-17T13:02:11.657Z,1.6
2022-10-17T13:05:11.708Z,1.3
2022-10-17T13:08:11.697Z,1.05
2022-10-17T13:11:11.742Z,0.85
2022-10-17T13:14:11.773Z,1.5
2022-10-17T13:17:11.739Z,2.6
2022-10-17T13:20:11.762Z,1.35
2022-10-17T13:23:11.747Z,1.4
2022-10-17T13:26:11.802Z,1.35
2022-10-17T13:29:11.791Z,1.3
2022-10-17T13:32:11.760Z,1.05
2022-10-17T13:35:11.796Z,1.4
2022-10-17T13:38:11.953Z,1.1
2022-10-17T13:41:34.626Z,1.7
2022-10-17T13:44:11.812Z,1.6
2022-10-17T13:47:11.850Z,1.1
2022-10-17T13:50:32.686Z,1.15
2022-10-17T13:53:11.760Z,1
2022-10-17T13:56:27.683Z,1.45
2022-10-17T13:59:11.813Z,1.1
2022-10-17T14:02:11.768Z,1
2022-10-17T14:05:18.489Z,0.9
2022-10-17T14:08:19.128Z,0.7
2022-10-17T14:11:11.814Z,1.35
2022-10-17T14:14:11.817Z,1.1
2022-10-17T14:17:11.803Z,0.6
2022-10-17T14:20:48.094Z,0.85
2022-10-17T14:23:22.672Z,0.55
2022-10-17T14:26:11.869Z,1.1
2022-10-17T14:29:11.889Z,1.45
2022-10-17T14:32:11.847Z,1.05
2022-10-17T14:35:37.245Z,0.9
2022-10-17T14:38:11.812Z,0.55
2022-10-17T14:41:41.726Z,0.5
2022-10-17T14:44:11.814Z,0.8
2022-10-17T14:47:38.446Z,0.45
2022-10-17T14:50:11.873Z,1.05
2022-10-17T14:53:11.872Z,0.4
2022-10-17T14:56:11.808Z,1
2022-10-17T14:59:25.588Z,0.65
2022-10-17T15:02:11.804Z,0.4
2022-10-17T15:05:14.467Z,0.4
2022-10-17T15:08:11.840Z,0.2
2022-10-17T15:11:11.872Z,0.25
2022-10-17T15:14:11.848Z,0.25
2022-10-17T15:17:12.013Z,0.15
2022-10-17T15:20:11.888Z,0
2022-10-17T15:23:11.944Z,0.15
2022-10-17T15:26:11.959Z,0.4
2022-10-17T15:29:11.880Z,0.3
2022-10-17T15:32:11.867Z,0.2
2022-10-17T15:35:11.869Z,0.35
2022-10-17T15:38:11.923Z,0.2
2022-10-17T15:41:11.895Z,0.25
2022-10-17T15:44:11.902Z,0.3
2022-10-17T15:47:12.030Z,0.25
2022-10-17T15:50:11.927Z,0.3
2022-10-17T15:53:11.939Z,0.35
2022-10-17T15:56:11.874Z,0.7
2022-10-17T15:59:11.879Z,0.9
2022-10-17T16:02:11.881Z,0.7
2022-10-17T16:05:11.933Z,0.55
2022-10-17T16:08:11.889Z,0.35
2022-10-17T16:11:11.962Z,0.3
2022-10-17T16:14:11.908Z,0.15
2022-10-17T16:17:11.934Z,0.3
2022-10-17T16:20:14.659Z,0.4
2022-10-17T16:23:11.987Z,0.2
2022-10-17T16:26:12.052Z,0.25
2022-10-17T16:29:12.040Z,0.2
2022-10-17T16:32:11.900Z,0.2
2022-10-17T16:35:11.934Z,0.25
2022-10-17T16:38:11.955Z,0.3
2022-10-17T16:41:11.918Z,0.25
2022-10-17T16:44:11.912Z,0.25
2022-10-17T16:47:11.987Z,0.25
2022-10-17T16:50:11.925Z,0
2022-10-17T16:53:11.952Z,0.2
2022-10-17T16:56:11.940Z,0.3
2022-10-17T16:59:11.962Z,0.45
2022-10-17T17:02:14.399Z,0.35
2022-10-17T17:05:12.002Z,0.25
2022-10-17T17:08:13.794Z,0.15
2022-10-17T17:11:11.996Z,0.3
2022-10-17T17:14:11.975Z,0.2
2022-10-17T17:17:24.341Z,0.15
2022-10-17T17:20:12.007Z,0.3
2022-10-17T17:23:16.687Z,0.25
2022-10-17T17:26:11.970Z,0.25
2022-10-17T17:29:12.107Z,0.25
2022-10-17T17:32:12.086Z,0.25
2022-10-17T17:35:11.970Z,0.4
2022-10-17T17:38:12.014Z,0.25
2022-10-17T17:41:12.066Z,0.25
2022-10-17T17:44:16.919Z,0.15
2022-10-17T17:47:12.005Z,0.2
2022-10-17T17:50:12.010Z,0.25
2022-10-17T17:53:12.058Z,0.15
2022-10-17T17:56:12.038Z,0.1
2022-10-17T17:59:11.978Z,0.2
2022-10-17T18:02:12.170Z,0.2
2022-10-17T18:05:11.975Z,0
2022-10-17T18:08:12.052Z,0
2022-10-17T18:11:12.028Z,0
2022-10-17T18:14:12.142Z,0
2022-10-17T18:17:12.006Z,0.3
2022-10-17T18:20:12.064Z,0.35
2022-10-17T18:23:12.070Z,0.2
2022-10-17T18:26:12.070Z,0.15
2022-10-17T18:29:12.069Z,0.25
2022-10-17T18:32:12.098Z,0.2
2022-10-17T18:35:11.991Z,0.25
2022-10-17T18:38:12.055Z,0.15
2022-10-17T18:41:12.034Z,0.1
2022-10-17T18:44:12.032Z,0
2022-10-17T18:47:12.079Z,0.8
2022-10-17T18:50:12.084Z,0.75
2022-10-17T18:53:12.083Z,0.3
2022-10-17T18:56:12.118Z,0.2
2022-10-17T18:59:12.039Z,0.55
2022-10-17T19:02:12.050Z,0.6
2022-10-17T19:05:12.069Z,0.25
2022-10-17T19:08:12.101Z,0.15
2022-10-17T19:11:12.086Z,0
2022-10-17T19:14:12.110Z,0
2022-10-17T19:17:12.155Z,0
2022-10-17T19:20:12.054Z,0
2022-10-17T19:23:12.112Z,0
2022-10-17T19:26:12.086Z,0
2022-10-17T19:29:12.104Z,0
2022-10-17T19:32:19.151Z,0
2022-10-17T19:35:12.090Z,0
2022-10-17T19:38:12.085Z,0
2022-10-17T19:41:12.112Z,0
2022-10-17T19:44:12.134Z,0
2022-10-17T19:47:12.074Z,0
2022-10-17T19:50:12.129Z,0.1
2022-10-17T19:53:12.086Z,0
2022-10-17T19:56:12.152Z,0
2022-10-17T19:59:12.247Z,0
2022-10-17T20:02:12.108Z,0
2022-10-17T20:05:18.991Z,0
2022-10-17T20:08:12.246Z,0
2022-10-17T20:11:12.165Z,0
2022-10-17T20:14:12.095Z,0
2022-10-17T20:17:12.161Z,0.2
2022-10-17T20:20:12.153Z,0.1
2022-10-17T20:23:12.154Z,0
2022-10-17T20:29:12.711Z,0
2022-10-17T20:32:12.110Z,0
2022-10-17T20:35:12.120Z,0
2022-10-17T20:38:12.173Z,0.1
2022-10-17T20:41:12.120Z,0.15
2022-10-17T20:44:12.168Z,0.2
2022-10-17T20:47:32.812Z,0
2022-10-17T20:50:12.190Z,0
2022-10-17T20:53:35.851Z,0
2022-10-17T20:56:12.134Z,0.2
2022-10-17T20:59:12.144Z,0.2
2022-10-17T21:02:12.145Z,0.2
2022-10-17T21:05:12.234Z,0.3
2022-10-17T21:08:12.210Z,0.25
2022-10-17T21:11:12.197Z,0.15
2022-10-17T21:14:12.184Z,0
2022-10-17T21:17:12.204Z,0.25
2022-10-17T21:20:12.139Z,0.25
2022-10-17T21:23:12.180Z,0.25
2022-10-17T21:26:12.142Z,0.35
2022-10-17T21:29:12.221Z,0.4
2022-10-17T21:32:25.083Z,0.35
2022-10-17T21:35:12.190Z,0.2
2022-10-17T21:38:12.134Z,0.25
2022-10-17T21:41:12.169Z,0.1
2022-10-17T21:44:12.210Z,0.15
2022-10-17T21:47:12.177Z,0.25
2022-10-17T21:50:12.243Z,0.15
2022-10-17T21:53:12.183Z,0.3
2022-10-17T21:56:12.205Z,0.3
2022-10-17T21:59:12.204Z,0.15
2022-10-17T22:02:12.200Z,0
2022-10-17T22:05:12.206Z,0.15
2022-10-17T22:08:12.222Z,0
2022-10-17T22:11:12.243Z,0
2022-10-17T22:14:12.234Z,0
2022-10-17T22:17:12.189Z,0
2022-10-17T22:20:12.255Z,0
2022-10-17T22:23:12.384Z,0.35
2022-10-17T22:26:12.312Z,0.2
2022-10-17T22:29:12.243Z,0
2022-10-17T22:32:12.239Z,0
2022-10-17T22:35:12.224Z,0
2022-10-17T22:38:12.216Z,0
2022-10-17T22:41:12.293Z,0
2022-10-17T22:44:12.279Z,0
2022-10-17T22:47:12.244Z,0
2022-10-17T22:50:12.273Z,0
2022-10-17T22:53:12.273Z,0
2022-10-17T22:56:12.270Z,0
2022-10-17T22:59:12.235Z,0
2022-10-17T23:02:12.266Z,0
2022-10-17T23:05:12.338Z,0.35
2022-10-17T23:08:12.279Z,0.3
2022-10-17T23:11:12.271Z,0.35
2022-10-17T23:14:12.239Z,0.35
2022-10-17T23:17:12.270Z,0.25
2022-10-17T23:20:12.306Z,0.2
2022-10-17T23:23:12.293Z,0
2022-10-17T23:26:12.313Z,0
2022-10-17T23:29:12.403Z,0
2022-10-17T23:32:12.327Z,0
2022-10-17T23:35:12.288Z,0
2022-10-17T23:38:12.323Z,0
2022-10-17T23:41:12.302Z,0
2022-10-17T23:44:12.654Z,0.2
2022-10-17T23:47:12.353Z,0.15
2022-10-17T23:50:12.276Z,0
2022-10-17T23:53:12.365Z,0
2022-10-17T23:56:12.376Z,0
2022-10-17T23:59:12.314Z,0
